createdAt,value
2018-12-23T00:02:26.563Z,11.75
2018-12-23T00:04:55.078Z,11.75
2018-12-23T00:10:06.023Z,11.70
2018-12-23T00:12:34.369Z,11.69
2018-12-23T00:17:45.054Z,11.69
2018-12-23T00:20:13.624Z,11.67
2018-12-23T00:22:42.179Z,11.64
2018-12-23T00:25:10.682Z,11.63
2018-12-23T00:30:20.812Z,11.60
2018-12-23T00:32:49.210Z,11.59
2018-12-23T00:37:59.569Z,11.58
2018-12-23T00:40:27.989Z,11.56
2018-12-23T00:42:56.334Z,11.58
2018-12-23T00:45:25.093Z,11.58
2018-12-23T00:50:35.466Z,11.55
2018-12-23T00:53:03.806Z,11.55
2018-12-23T00:55:32.241Z,11.57
2018-12-23T01:01:12.158Z,11.64
2018-12-23T01:03:40.776Z,11.57
2018-12-23T01:06:09.474Z,11.56
2018-12-23T01:08:38.586Z,11.56
2018-12-23T01:11:07.300Z,11.55
2018-12-23T01:13:36.483Z,11.55
2018-12-23T01:16:05.371Z,11.55
2018-12-23T01:18:34.105Z,11.52
2018-12-23T01:21:02.726Z,11.52
2018-12-23T01:23:31.627Z,11.49
2018-12-23T01:26:00.500Z,11.48
2018-12-23T01:28:29.470Z,11.48
2018-12-23T01:30:58.071Z,11.49
2018-12-23T01:33:26.676Z,11.50
2018-12-23T01:35:55.270Z,11.49
2018-12-23T01:38:23.911Z,11.52
2018-12-23T01:40:52.505Z,11.53
2018-12-23T01:43:21.097Z,11.54
2018-12-23T01:45:49.678Z,11.54
2018-12-23T01:48:18.804Z,11.55
2018-12-23T01:50:49.289Z,11.57
2018-12-23T01:53:17.950Z,11.57
2018-12-23T01:55:48.334Z,11.59
2018-12-23T01:58:17.029Z,11.60
2018-12-23T02:00:46.026Z,11.63
2018-12-23T02:03:14.730Z,11.64
2018-12-23T02:05:46.094Z,11.64
2018-12-23T02:08:14.359Z,11.66
2018-12-23T02:10:42.906Z,11.65
2018-12-23T02:13:11.814Z,11.66
2018-12-23T02:15:40.655Z,11.68
2018-12-23T02:18:09.581Z,11.69
2018-12-23T02:20:38.180Z,11.69
2018-12-23T02:23:06.835Z,11.69
2018-12-23T02:25:35.520Z,11.69
2018-12-23T02:28:04.898Z,11.68
2018-12-23T02:30:33.477Z,11.68
2018-12-23T02:33:02.115Z,11.66
2018-12-23T02:35:31.078Z,11.67
2018-12-23T02:38:00.716Z,11.67
2018-12-23T02:40:29.362Z,11.68
2018-12-23T02:42:58.070Z,11.70
2018-12-23T02:45:26.737Z,11.70
2018-12-23T02:47:55.375Z,11.70
2018-12-23T02:50:24.163Z,11.70
2018-12-23T02:52:53.113Z,11.68
2018-12-23T02:55:21.730Z,11.67
2018-12-23T02:57:50.335Z,11.64
2018-12-23T03:00:18.992Z,11.60
2018-12-23T03:02:47.622Z,11.57
2018-12-23T03:05:16.178Z,11.54
2018-12-23T03:07:44.835Z,11.54
2018-12-23T03:10:14.411Z,11.54
2018-12-23T03:12:43.038Z,11.53
2018-12-23T03:15:11.626Z,11.52
2018-12-23T03:17:40.264Z,11.52
2018-12-23T03:20:08.880Z,11.52
2018-12-23T03:22:37.516Z,11.52
2018-12-23T03:25:06.344Z,11.51
2018-12-23T03:27:35.428Z,11.50
2018-12-23T03:30:04.662Z,11.51
2018-12-23T03:32:33.269Z,11.49
2018-12-23T03:35:04.292Z,11.48
2018-12-23T03:37:33.262Z,11.48
2018-12-23T03:40:02.005Z,11.45
2018-12-23T03:42:32.720Z,11.42
2018-12-23T03:45:01.373Z,11.42
2018-12-23T03:47:30.970Z,11.39
2018-12-23T03:49:59.627Z,11.35
2018-12-23T03:52:28.251Z,11.31
2018-12-23T03:54:56.848Z,11.29
2018-12-23T03:57:25.836Z,11.26
2018-12-23T03:59:54.734Z,11.24
2018-12-23T04:02:23.427Z,11.22
2018-12-23T04:04:52.262Z,11.23
2018-12-23T04:07:20.787Z,11.21
2018-12-23T04:09:49.383Z,11.23
2018-12-23T04:12:18.375Z,11.19
2018-12-23T04:14:47.020Z,11.17
2018-12-23T04:17:15.844Z,11.17
2018-12-23T04:19:44.507Z,11.15
2018-12-23T04:22:14.243Z,11.13
2018-12-23T04:24:43.757Z,11.12
2018-12-23T04:27:12.438Z,11.12
2018-12-23T04:29:41.246Z,11.12
2018-12-23T04:32:09.990Z,11.13
2018-12-23T04:34:38.965Z,11.14
2018-12-23T04:37:09.219Z,11.14
2018-12-23T04:39:37.886Z,11.16
2018-12-23T04:42:06.920Z,11.16
2018-12-23T04:44:37.189Z,11.16
2018-12-23T04:47:06.038Z,11.16
2018-12-23T04:49:34.818Z,11.18
2018-12-23T04:52:03.766Z,11.17
2018-12-23T04:54:32.880Z,11.15
2018-12-23T04:57:03.226Z,11.15
2018-12-23T04:59:32.952Z,11.15
2018-12-23T05:08:04.601Z,11.08
2018-12-23T05:10:35.282Z,11.03
2018-12-23T05:13:05.178Z,11.01
2018-12-23T05:15:33.765Z,11.01
2018-12-23T05:18:03.458Z,11.01
2018-12-23T05:20:32.052Z,11.03
2018-12-23T05:23:00.789Z,11.04
2018-12-23T05:25:29.492Z,11.05
2018-12-23T05:27:58.238Z,11.06
2018-12-23T05:30:27.351Z,11.07
2018-12-23T05:32:56.309Z,11.06
2018-12-23T05:35:24.910Z,11.05
2018-12-23T05:37:53.645Z,11.04
2018-12-23T05:40:22.480Z,11.05
2018-12-23T05:42:52.710Z,11.04
2018-12-23T05:45:21.343Z,11.03
2018-12-23T05:47:50.126Z,11.03
2018-12-23T05:50:18.855Z,11.03
2018-12-23T05:52:47.591Z,11.02
2018-12-23T05:55:23.139Z,11.02
2018-12-23T05:57:53.863Z,11.01
2018-12-23T06:00:22.662Z,11.04
2018-12-23T06:02:51.665Z,11.05
2018-12-23T06:05:20.411Z,11.06
2018-12-23T06:07:49.027Z,11.09
2018-12-23T06:10:18.168Z,11.09
2018-12-23T06:12:47.818Z,11.10
2018-12-23T06:15:16.415Z,11.10
2018-12-23T06:17:45.148Z,11.09
2018-12-23T06:20:13.898Z,11.07
2018-12-23T06:22:42.641Z,11.05
2018-12-23T06:25:11.486Z,11.02
2018-12-23T06:27:41.661Z,11.02
2018-12-23T06:30:10.293Z,11.01
2018-12-23T06:32:39.159Z,11.01
2018-12-23T06:35:07.944Z,11.02
2018-12-23T06:37:36.575Z,11.04
2018-12-23T06:40:06.362Z,11.05
2018-12-23T06:42:34.995Z,11.05
2018-12-23T06:45:05.292Z,11.05
2018-12-23T06:47:35.237Z,11.04
2018-12-23T06:50:04.678Z,11.03
2018-12-23T06:52:33.443Z,11.02
2018-12-23T06:55:02.178Z,11.02
2018-12-23T06:57:30.842Z,11.03
2018-12-23T06:59:59.846Z,11.04
2018-12-23T07:02:29.915Z,11.05
2018-12-23T07:04:58.881Z,11.09
2018-12-23T07:07:27.498Z,11.11
2018-12-23T07:09:56.507Z,11.12
2018-12-23T07:12:25.173Z,11.14
2018-12-23T07:14:53.828Z,11.15
2018-12-23T07:17:22.886Z,11.16
2018-12-23T07:19:51.652Z,11.17
2018-12-23T07:22:21.348Z,11.16
2018-12-23T07:24:50.062Z,11.15
2018-12-23T07:27:18.784Z,11.14
2018-12-23T07:29:47.656Z,11.13
2018-12-23T07:32:16.586Z,11.13
2018-12-23T07:34:45.343Z,11.11
2018-12-23T07:37:14.156Z,11.10
2018-12-23T07:39:43.028Z,11.08
2018-12-23T07:42:12.131Z,11.05
2018-12-23T07:44:42.992Z,11.02
2018-12-23T07:47:11.720Z,11.00
2018-12-23T07:49:40.456Z,10.98
2018-12-23T07:52:09.070Z,10.96
2018-12-23T07:54:38.407Z,10.93
2018-12-23T07:57:06.990Z,10.92
2018-12-23T07:59:36.976Z,10.90
2018-12-23T08:02:05.567Z,10.90
2018-12-23T08:04:34.270Z,10.87
2018-12-23T08:07:02.926Z,10.89
2018-12-23T08:09:31.550Z,10.88
2018-12-23T08:12:00.244Z,10.89
2018-12-23T08:14:30.074Z,10.88
2018-12-23T08:16:58.898Z,10.87
2018-12-23T08:19:27.491Z,10.87
2018-12-23T08:21:58.255Z,10.86
2018-12-23T08:24:26.988Z,10.88
2018-12-23T08:26:55.932Z,10.89
2018-12-23T08:29:24.539Z,10.92
2018-12-23T08:31:53.474Z,10.93
2018-12-23T08:34:22.210Z,10.99
2018-12-23T08:36:50.922Z,11.00
2018-12-23T08:39:19.544Z,11.01
2018-12-23T08:41:49.641Z,11.02
2018-12-23T08:44:18.875Z,11.04
2018-12-23T08:46:48.555Z,11.05
2018-12-23T08:49:18.637Z,11.07
2018-12-23T08:51:47.253Z,11.07
2018-12-23T08:54:16.627Z,11.09
2018-12-23T08:56:45.592Z,11.12
2018-12-23T08:59:14.353Z,11.14
2018-12-23T09:01:43.423Z,11.14
2018-12-23T09:04:12.403Z,11.16
2018-12-23T09:06:41.006Z,11.17
2018-12-23T09:09:12.814Z,11.21
2018-12-23T09:11:42.991Z,11.23
2018-12-23T09:14:12.060Z,11.27
2018-12-23T09:16:40.737Z,11.31
2018-12-23T09:19:09.498Z,11.34
2018-12-23T09:21:38.127Z,11.39
2018-12-23T09:24:06.873Z,11.44
2018-12-23T09:26:35.895Z,11.48
2018-12-23T09:29:04.598Z,11.52
2018-12-23T09:31:33.419Z,11.54
2018-12-23T09:34:02.140Z,11.58
2018-12-23T09:36:32.213Z,11.60
2018-12-23T09:39:00.815Z,11.61
2018-12-23T09:41:29.545Z,11.63
2018-12-23T09:43:58.574Z,11.64
2018-12-23T09:46:28.483Z,11.69
2018-12-23T09:48:57.095Z,11.71
2018-12-23T09:51:25.708Z,11.75
2018-12-23T09:53:57.070Z,11.79
2018-12-23T09:56:25.697Z,11.84
2018-12-23T09:58:54.272Z,11.88
2018-12-23T10:01:23.290Z,11.91
2018-12-23T10:03:51.756Z,11.96
2018-12-23T10:06:20.722Z,11.99
2018-12-23T10:08:49.260Z,12.03
2018-12-23T10:11:17.986Z,12.10
2018-12-23T10:13:46.648Z,12.13
2018-12-23T10:16:16.016Z,12.18
2018-12-23T10:18:44.797Z,12.22
2018-12-23T10:21:13.507Z,12.27
2018-12-23T10:23:42.539Z,12.30
2018-12-23T10:26:11.178Z,12.36
2018-12-23T10:28:40.861Z,12.40
2018-12-23T10:31:09.495Z,12.42
2018-12-23T10:33:38.529Z,12.45
2018-12-23T10:36:07.437Z,12.49
2018-12-23T10:38:36.019Z,12.51
2018-12-23T10:41:05.148Z,12.51
2018-12-23T10:43:34.162Z,12.53
2018-12-23T10:46:04.184Z,12.57
2018-12-23T10:48:32.811Z,12.60
2018-12-23T10:51:01.637Z,12.63
2018-12-23T10:53:30.203Z,12.65
2018-12-23T10:55:58.874Z,12.66
2018-12-23T10:58:27.758Z,12.67
2018-12-23T11:00:56.355Z,12.68
2018-12-23T11:03:25.058Z,12.68
2018-12-23T11:05:54.063Z,12.68
2018-12-23T11:08:26.855Z,12.70
2018-12-23T11:10:53.634Z,12.71
2018-12-23T11:13:22.426Z,12.72
2018-12-23T11:15:52.634Z,12.74
2018-12-23T11:18:21.286Z,12.75
2018-12-23T11:20:50.143Z,12.74
2018-12-23T11:23:19.164Z,12.73
2018-12-23T11:25:48.216Z,12.72
2018-12-23T11:28:16.965Z,12.72
2018-12-23T11:30:45.586Z,12.73
2018-12-23T11:33:14.578Z,12.70
2018-12-23T11:35:43.984Z,12.68
2018-12-23T11:38:12.810Z,12.69
2018-12-23T11:40:42.839Z,12.68
2018-12-23T11:43:11.647Z,12.64
2018-12-23T11:45:40.704Z,12.63
2018-12-23T11:48:10.674Z,12.60
2018-12-23T11:50:39.683Z,12.60
2018-12-23T11:53:09.736Z,12.63
2018-12-23T11:55:38.806Z,12.63
2018-12-23T11:58:07.734Z,12.63
2018-12-23T12:00:36.479Z,12.58
2018-12-23T12:03:06.128Z,12.59
2018-12-23T12:05:36.456Z,12.58
2018-12-23T12:08:05.624Z,12.56
2018-12-23T12:10:34.367Z,12.57
2018-12-23T12:13:03.176Z,12.58
2018-12-23T12:15:32.393Z,12.61
2018-12-23T12:18:01.086Z,12.61
2018-12-23T12:20:30.284Z,12.60
2018-12-23T12:22:59.065Z,12.55
2018-12-23T12:25:27.946Z,12.54
2018-12-23T12:27:56.960Z,12.53
2018-12-23T12:30:25.736Z,12.55
2018-12-23T12:32:54.747Z,12.54
2018-12-23T12:35:23.455Z,12.52
2018-12-23T12:37:52.020Z,12.51
2018-12-23T12:40:21.266Z,12.52
2018-12-23T12:42:49.930Z,12.52
2018-12-23T12:45:19.097Z,12.51
2018-12-23T12:47:47.697Z,12.52
2018-12-23T12:50:16.358Z,12.54
2018-12-23T12:52:45.196Z,12.55
2018-12-23T12:55:16.608Z,12.55
2018-12-23T12:57:45.430Z,12.53
2018-12-23T13:00:14.279Z,12.53
2018-12-23T13:02:43.044Z,12.52
2018-12-23T13:05:11.732Z,12.51
2018-12-23T13:07:40.758Z,12.53
2018-12-23T13:10:09.495Z,12.53
2018-12-23T13:12:38.201Z,12.49
2018-12-23T13:15:06.967Z,12.47
2018-12-23T13:17:35.717Z,12.48
2018-12-23T13:20:05.748Z,12.46
2018-12-23T13:22:34.537Z,12.45
2018-12-23T13:25:03.270Z,12.46
2018-12-23T13:27:31.936Z,12.44
2018-12-23T13:30:00.761Z,12.46
2018-12-23T13:32:29.798Z,12.46
2018-12-23T13:34:58.951Z,12.47
2018-12-23T13:37:27.710Z,12.45
2018-12-23T13:40:01.337Z,12.47
2018-12-23T13:43:12.518Z,12.47
2018-12-23T13:45:59.795Z,12.47
2018-12-23T13:49:43.987Z,12.45
2018-12-23T13:53:15.898Z,12.45
2018-12-23T13:57:06.432Z,12.44
2018-12-23T14:00:42.985Z,12.43
2018-12-23T14:04:12.460Z,12.42
2018-12-23T14:07:29.341Z,12.39
2018-12-23T14:10:56.091Z,12.42
2018-12-23T14:13:25.791Z,12.43
2018-12-23T14:15:54.820Z,12.45
2018-12-23T14:18:24.905Z,12.47
2018-12-23T14:20:54.592Z,12.50
2018-12-23T14:23:24.574Z,12.53
2018-12-23T14:25:53.305Z,12.56
2018-12-23T14:28:22.270Z,12.58
2018-12-23T14:30:51.183Z,12.63
2018-12-23T14:33:19.941Z,12.67
2018-12-23T14:35:48.919Z,12.69
2018-12-23T14:38:17.811Z,12.71
2018-12-23T14:40:46.598Z,12.75
2018-12-23T14:43:15.173Z,12.76
2018-12-23T14:45:44.199Z,12.76
2018-12-23T14:48:12.860Z,12.77
2018-12-23T14:50:42.448Z,12.79
2018-12-23T14:53:11.292Z,12.79
2018-12-23T14:55:40.198Z,12.81
2018-12-23T14:58:11.122Z,12.84
2018-12-23T15:00:39.981Z,12.85
2018-12-23T15:03:08.586Z,12.86
2018-12-23T15:05:37.221Z,12.89
2018-12-23T15:08:06.465Z,12.89
2018-12-23T15:10:35.178Z,12.92
2018-12-23T15:13:03.856Z,12.95
2018-12-23T15:15:32.865Z,12.97
2018-12-23T15:18:01.454Z,12.99
2018-12-23T15:20:30.387Z,13.01
2018-12-23T15:22:59.003Z,13.02
2018-12-23T15:25:28.605Z,13.05
2018-12-23T15:27:57.750Z,13.05
2018-12-23T15:30:26.463Z,13.07
2018-12-23T15:32:55.164Z,13.09
2018-12-23T15:35:24.891Z,13.11
2018-12-23T15:37:53.539Z,13.11
2018-12-23T15:40:22.589Z,13.14
2018-12-23T15:42:51.273Z,13.15
2018-12-23T15:45:20.372Z,13.17
2018-12-23T15:47:49.031Z,13.19
2018-12-23T15:50:17.630Z,13.19
2018-12-23T15:52:46.830Z,13.22
2018-12-23T15:55:15.699Z,13.23
2018-12-23T15:57:44.389Z,13.26
2018-12-23T16:00:14.812Z,13.26
2018-12-23T16:02:44.593Z,13.28
2018-12-23T16:05:13.178Z,13.28
2018-12-23T16:07:42.069Z,13.31
2018-12-23T16:10:10.936Z,13.33
2018-12-23T16:12:40.025Z,13.36
2018-12-23T16:15:08.631Z,13.36
2018-12-23T16:17:37.578Z,13.39
2018-12-23T16:20:12.072Z,13.40
2018-12-23T16:22:43.086Z,13.43
2018-12-23T16:25:11.847Z,13.43
2018-12-23T16:27:41.980Z,13.44
2018-12-23T16:30:12.492Z,13.44
2018-12-23T16:32:41.262Z,13.47
2018-12-23T16:35:09.992Z,13.49
2018-12-23T16:37:39.165Z,13.52
2018-12-23T16:40:11.000Z,13.53
2018-12-23T16:42:39.664Z,13.54
2018-12-23T16:45:08.344Z,13.56
2018-12-23T16:47:36.975Z,13.56
2018-12-23T16:50:07.146Z,13.56
2018-12-23T16:52:35.955Z,13.60
2018-12-23T16:55:04.762Z,13.61
2018-12-23T16:57:33.674Z,13.62
2018-12-23T17:00:02.498Z,13.64
2018-12-23T17:02:31.353Z,13.64
2018-12-23T17:04:59.921Z,13.68
2018-12-23T17:07:28.726Z,13.67
2018-12-23T17:09:57.531Z,13.69
2018-12-23T17:12:26.165Z,13.71
2018-12-23T17:14:55.054Z,13.74
2018-12-23T17:17:23.799Z,13.76
2018-12-23T17:19:53.460Z,13.79
2018-12-23T17:22:22.114Z,13.79
2018-12-23T17:24:51.378Z,13.81
2018-12-23T17:27:20.339Z,13.82
2018-12-23T17:29:49.240Z,13.83
2018-12-23T17:32:17.894Z,13.84
2018-12-23T17:34:46.504Z,13.87
2018-12-23T17:37:15.285Z,13.88
2018-12-23T17:39:43.997Z,13.91
2018-12-23T17:42:13.926Z,13.93
2018-12-23T17:44:44.196Z,13.94
2018-12-23T17:47:13.376Z,13.95
2018-12-23T17:49:42.054Z,13.96
2018-12-23T17:52:11.007Z,13.96
2018-12-23T17:54:39.599Z,13.97
2018-12-23T17:57:08.195Z,14.00
2018-12-23T17:59:37.042Z,14.01
2018-12-23T18:02:05.648Z,14.03
2018-12-23T18:04:34.241Z,14.04
2018-12-23T18:07:03.929Z,14.06
2018-12-23T18:09:32.728Z,14.06
2018-12-23T18:12:01.343Z,14.08
2018-12-23T18:14:30.300Z,14.09
2018-12-23T18:16:59.063Z,14.10
2018-12-23T18:19:27.670Z,14.11
2018-12-23T18:21:56.336Z,14.10
2018-12-23T18:24:25.250Z,14.11
2018-12-23T18:26:53.947Z,14.12
2018-12-23T18:29:22.613Z,14.12
2018-12-23T18:31:51.413Z,14.13
2018-12-23T18:34:20.331Z,14.15
2018-12-23T18:36:48.950Z,14.15
2018-12-23T18:39:17.824Z,14.15
2018-12-23T18:41:46.795Z,14.16
2018-12-23T18:44:15.903Z,14.18
2018-12-23T18:46:45.372Z,14.19
2018-12-23T18:49:14.378Z,14.21
2018-12-23T18:51:43.085Z,14.22
2018-12-23T18:54:12.065Z,14.24
2018-12-23T18:56:45.104Z,14.26
2018-12-23T18:59:16.820Z,14.27
2018-12-23T19:02:09.880Z,14.27
2018-12-23T19:04:39.073Z,14.30
2018-12-23T19:07:09.564Z,14.32
2018-12-23T19:10:28.660Z,14.32
2018-12-23T19:14:04.733Z,14.34
2018-12-23T19:17:45.702Z,14.35
2018-12-23T19:21:04.676Z,14.34
2018-12-23T19:24:32.022Z,14.32
2018-12-23T19:28:16.101Z,14.33
2018-12-23T19:31:54.240Z,14.36
2018-12-23T19:35:10.546Z,14.37
2018-12-23T19:38:47.188Z,14.38
2018-12-23T19:42:20.517Z,14.40
2018-12-23T19:46:01.288Z,14.41
2018-12-23T19:49:23.386Z,14.38
2018-12-23T19:52:40.382Z,14.38
2018-12-23T19:55:50.638Z,14.38
2018-12-23T19:59:21.998Z,14.36
2018-12-23T20:02:51.621Z,14.36
2018-12-23T20:06:35.811Z,14.39
2018-12-23T20:09:56.804Z,14.41
2018-12-23T20:13:33.330Z,14.44
2018-12-23T20:17:19.813Z,14.45
2018-12-23T20:20:30.842Z,14.42
2018-12-23T20:23:53.311Z,14.40
2018-12-23T20:27:20.388Z,14.41
2018-12-23T20:30:40.612Z,14.45
2018-12-23T20:33:56.587Z,14.48
2018-12-23T20:37:05.293Z,14.48
2018-12-23T20:40:35.286Z,14.51
2018-12-23T20:43:57.199Z,14.54
2018-12-23T20:47:37.739Z,14.58
2018-12-23T20:51:15.462Z,14.61
2018-12-23T20:55:09.697Z,14.63
2018-12-23T20:58:22.565Z,14.66
2018-12-23T21:01:59.028Z,14.68
2018-12-23T21:05:33.457Z,14.69
2018-12-23T21:09:01.365Z,14.71
2018-12-23T21:12:32.553Z,14.73
2018-12-23T21:16:02.989Z,14.78
2018-12-23T21:19:39.784Z,14.79
2018-12-23T21:22:44.632Z,14.80
2018-12-23T21:26:20.026Z,14.79
2018-12-23T21:30:06.623Z,14.81
2018-12-23T21:33:53.593Z,14.81
2018-12-23T21:37:11.999Z,14.82
2018-12-23T21:40:43.533Z,14.82
2018-12-23T21:44:15.971Z,14.85
2018-12-23T21:47:52.832Z,14.88
2018-12-23T21:51:39.214Z,14.91
2018-12-23T21:55:02.020Z,14.93
2018-12-23T21:58:42.420Z,14.89
2018-12-23T22:02:30.347Z,14.88
2018-12-23T22:06:01.519Z,14.88
2018-12-23T22:09:25.574Z,14.89
2018-12-23T22:12:37.600Z,14.90
2018-12-23T22:15:07.597Z,14.93
2018-12-23T22:17:36.370Z,14.96
2018-12-23T22:20:06.167Z,14.99
2018-12-23T22:22:35.108Z,15.01
2018-12-23T22:25:04.243Z,15.07
2018-12-23T22:27:33.078Z,15.10
2018-12-23T22:30:01.851Z,15.13
2018-12-23T22:32:30.901Z,15.13
2018-12-23T22:34:59.690Z,15.13
2018-12-23T22:37:28.812Z,15.15
2018-12-23T22:39:57.552Z,15.17
2018-12-23T22:42:26.667Z,15.20
2018-12-23T22:44:55.273Z,15.20
2018-12-23T22:47:24.395Z,15.18
2018-12-23T22:49:53.141Z,15.20
2018-12-23T22:52:21.913Z,15.19
2018-12-23T22:54:50.533Z,15.19
2018-12-23T22:57:19.520Z,15.23
2018-12-23T22:59:48.276Z,15.24
2018-12-23T23:02:17.354Z,15.26
2018-12-23T23:04:46.032Z,15.27
2018-12-23T23:07:14.690Z,15.26
2018-12-23T23:09:43.397Z,15.27
2018-12-23T23:12:12.174Z,15.25
2018-12-23T23:14:41.144Z,15.23
2018-12-23T23:17:10.547Z,15.23
2018-12-23T23:19:39.278Z,15.21
2018-12-23T23:22:08.043Z,15.23
2018-12-23T23:24:37.094Z,15.25
2018-12-23T23:27:07.346Z,15.26
2018-12-23T23:29:35.918Z,15.27
2018-12-23T23:32:04.539Z,15.26
2018-12-23T23:34:33.232Z,15.25
2018-12-23T23:37:02.294Z,15.25
2018-12-23T23:39:31.982Z,15.26
2018-12-23T23:42:00.723Z,15.29
2018-12-23T23:44:29.669Z,15.28
2018-12-23T23:46:58.490Z,15.27
2018-12-23T23:49:27.370Z,15.29
2018-12-23T23:51:55.972Z,15.28
2018-12-23T23:54:24.686Z,15.30
2018-12-23T23:56:53.294Z,15.30
2018-12-23T23:59:21.875Z,15.33
